Terminal Aerodrome Forecast
Issued by NWS Wilmington, NC

Home | Current Version | Previous Version | Text Only | Print | Product List | Glossary On
Versions: 1 2 3 4 5 6 7 8 9 10 11 12 13
415
FTUS42 KILM 281130
TAFILM
TAF
KILM 281130Z 2812/2912 VRB05KT P6SM SCT020 SCT100
     FM281500 17008KT P6SM SCT025 SCT050 SCT100
     FM290000 16004KT P6SM FEW120 BKN200=

USA.gov is the U.S. government's official web portal to all federal, state and local government web resources and services.